Los Chavez, New Mexico
Current Conditions -  °F | °C
As of 10:55 AM on Friday 24 Oct 2014 (Local Time) from KE80 Reporting Station
Clear Clear  
Wind Chill: 63°   Ceiling: Unl
Heat Index: 63°   Visibility: 10mi
Dew Point: 35°   Wind: 0mph
Humidity: 35%   Direction: NA
Pressure: 30.35"   Gusts: NA
Location:  34.5756°N, 106.588°W
Report Text: KE80 241655Z AUTO 00000KT 10SM CLR 17/02 A3035 RMK AO2 T01740019
Loading
Personal Weather Stations






























Interactive Weather Map
Tropical Storm Tracking
New forecast layout! Learn more

10-Day Weather Forecast

Advertisements
Track Severe Weather on mobile